Time;durP1;ratioP1;P1;durP2;ratioP2;P2;SDS_P1;SDS_P2;PMS_P1;PMS_P2;Temp;Humidity;BMP_temperature;BMP_pressure;BME280_temperature;BME280_humidity;BME280_pressure;Samples;Min_cycle;Max_cycle;Signal;HPM_P1;HPM_P2
2021/03/10 00:02:24;;;;;;;14.45;3.40;;;17.30;98.20;;;;;;4934073;29;20290;-62
2021/03/10 00:04:50;;;;;;;11.43;2.55;;;16.70;99.50;;;;;;4934363;29;20058;-62
2021/03/10 00:07:17;;;;;;;11.50;2.20;;;17.20;99.50;;;;;;4932870;29;20027;-62
2021/03/10 00:09:44;;;;;;;13.82;3.50;;;17.20;98.80;;;;;;4932655;29;20378;-62
2021/03/10 00:12:10;;;;;;;9.63;2.70;;;17.00;99.50;;;;;;4932644;29;20054;-63
2021/03/10 00:14:37;;;;;;;32.92;5.00;;;17.30;99.00;;;;;;4932269;29;20621;-63
2021/03/10 00:17:04;;;;;;;13.32;2.45;;;17.20;99.20;;;;;;4932727;29;20039;-63
2021/03/10 00:19:30;;;;;;;16.05;2.63;;;17.30;98.80;;;;;;4929535;29;20048;-62
2021/03/10 00:21:57;;;;;;;10.48;3.00;;;17.10;99.00;;;;;;4931753;29;20449;-61
2021/03/10 00:24:24;;;;;;;11.27;2.47;;;17.20;98.70;;;;;;4931623;29;20047;-62
2021/03/10 00:26:51;;;;;;;9.57;2.28;;;17.40;98.60;;;;;;4933577;29;20039;-62
2021/03/10 00:29:17;;;;;;;13.27;2.97;;;17.20;98.30;;;;;;4935808;29;20414;-61
2021/03/10 00:31:44;;;;;;;15.57;3.10;;;17.00;98.50;;;;;;4935112;29;20051;-61
2021/03/10 00:34:10;;;;;;;17.48;3.10;;;17.00;98.50;;;;;;4934946;29;20044;-61
2021/03/10 00:36:37;;;;;;;13.27;2.78;;;17.10;98.30;;;;;;4933597;29;20051;-61
2021/03/10 00:39:04;;;;;;;11.98;2.13;;;17.10;99.10;;;;;;4932028;29;20027;-61
2021/03/10 00:41:30;;;;;;;15.57;2.92;;;17.00;98.80;;;;;;4932545;29;20302;-63
2021/03/10 00:43:57;;;;;;;11.82;2.55;;;16.80;98.90;;;;;;4935487;29;20023;-61
2021/03/10 00:46:24;;;;;;;9.88;2.47;;;16.30;99.30;;;;;;4934582;29;20036;-61
2021/03/10 00:48:50;;;;;;;13.13;2.75;;;16.20;99.50;;;;;;4935024;29;20046;-61
2021/03/10 00:51:17;;;;;;;14.45;2.75;;;16.40;99.40;;;;;;4933699;29;20050;-62
2021/03/10 00:53:43;;;;;;;8.77;2.45;;;16.60;99.70;;;;;;4935517;29;20036;-62
2021/03/10 00:56:10;;;;;;;13.02;2.58;;;16.50;99.20;;;;;;4917899;29;20027;-62
2021/03/10 00:58:37;;;;;;;14.30;2.63;;;16.10;99.70;;;;;;4933118;29;20035;-63
2021/03/10 01:01:04;;;;;;;10.68;2.85;;;15.80;99.90;;;;;;4916812;29;20047;-61
2021/03/10 01:03:30;;;;;;;12.02;1.77;;;15.80;99.90;;;;;;4933837;29;20031;-61
2021/03/10 01:05:57;;;;;;;12.57;2.60;;;15.90;99.90;;;;;;4934157;29;20035;-62
2021/03/10 01:08:24;;;;;;;11.85;2.35;;;15.80;99.70;;;;;;4934283;29;20020;-61
2021/03/10 01:10:50;;;;;;;12.68;2.88;;;15.70;99.90;;;;;;4934930;29;20116;-62
2021/03/10 01:13:17;;;;;;;14.10;3.10;;;15.70;99.90;;;;;;4935423;29;20031;-62
2021/03/10 01:15:44;;;;;;;7.75;2.08;;;15.80;99.90;;;;;;4933646;29;20078;-61
2021/03/10 01:18:11;;;;;;;8.77;2.30;;;15.60;99.90;;;;;;4934917;29;20090;-61
2021/03/10 01:20:37;;;;;;;13.10;2.97;;;15.30;99.90;;;;;;4935350;29;20361;-61
2021/03/10 01:23:04;;;;;;;15.13;3.10;;;15.20;99.90;;;;;;4933413;29;20118;-61
2021/03/10 01:25:30;;;;;;;11.73;2.15;;;14.90;99.90;;;;;;4932723;29;20173;-63
2021/03/10 01:27:57;;;;;;;10.52;2.95;;;14.80;99.90;;;;;;4932945;29;20030;-62
2021/03/10 01:30:24;;;;;;;16.77;2.20;;;14.80;99.90;;;;;;4934150;29;20440;-62
2021/03/10 01:32:51;;;;;;;13.95;2.92;;;14.80;99.90;;;;;;4936654;29;20422;-62
2021/03/10 01:35:19;;;;;;;10.73;2.28;;;14.70;99.90;;;;;;4934670;29;20043;-62
2021/03/10 01:37:45;;;;;;;13.07;2.72;;;14.70;99.90;;;;;;4936447;29;20176;-62
2021/03/10 01:40:15;;;;;;;13.50;2.85;;;14.50;99.90;;;;;;4934869;29;20063;-62
2021/03/10 01:42:42;;;;;;;17.00;2.65;;;14.40;99.90;;;;;;4931656;29;20024;-62
2021/03/10 01:45:10;;;;;;;15.30;2.55;;;14.40;99.90;;;;;;4931624;29;20095;-61
2021/03/10 01:47:41;;;;;;;17.42;3.17;;;14.40;99.90;;;;;;4935452;29;20040;-63
2021/03/10 01:50:09;;;;;;;13.50;2.22;;;14.30;99.90;;;;;;4934848;29;20028;-63
2021/03/10 01:52:36;;;;;;;10.70;2.50;;;14.30;99.90;;;;;;4933515;29;20023;-62
2021/03/10 01:55:04;;;;;;;13.38;2.00;;;14.30;99.90;;;;;;4933462;29;20024;-62
2021/03/10 01:57:30;;;;;;;13.48;2.80;;;14.20;99.90;;;;;;4933505;29;20038;-62
2021/03/10 01:59:58;;;;;;;13.15;2.47;;;14.30;99.90;;;;;;4938800;29;20040;-61
2021/03/10 02:02:25;;;;;;;13.85;2.45;;;14.10;99.90;;;;;;4937879;29;20038;-61
2021/03/10 02:04:52;;;;;;;19.92;2.90;;;14.00;99.90;;;;;;4946275;29;20431;-62
2021/03/10 02:07:32;;;;;;;8.88;2.67;;;14.00;99.90;;;;;;4939040;29;20087;-62
2021/03/10 02:10:14;;;;;;;14.18;4.22;;;13.90;99.90;;;;;;4932559;29;20039;-62
2021/03/10 02:12:53;;;;;;;17.65;3.17;;;13.90;99.90;;;;;;4935773;29;20032;-62
2021/03/10 02:15:41;;;;;;;7.47;2.28;;;13.90;99.90;;;;;;4937271;29;20023;-62
2021/03/10 02:18:17;;;;;;;17.13;3.58;;;13.90;99.90;;;;;;4934598;29;20122;-62
2021/03/10 02:20:46;;;;;;;14.05;3.53;;;13.90;99.90;;;;;;4933995;29;20043;-64
2021/03/10 02:23:13;;;;;;;14.93;2.50;;;13.90;99.90;;;;;;4935826;29;20136;-63
2021/03/10 02:26:05;;;;;;;10.00;2.63;;;13.80;99.90;;;;;;4937291;29;20067;-63
2021/03/10 02:28:33;;;;;;;13.23;2.78;;;13.70;99.90;;;;;;4935509;29;20030;-63
2021/03/10 02:31:02;;;;;;;12.75;2.63;;;13.70;99.90;;;;;;4936311;29;20098;-62
2021/03/10 02:33:34;;;;;;;24.20;4.25;;;13.80;99.90;;;;;;4936597;29;20066;-62
2021/03/10 02:36:11;;;;;;;15.18;2.38;;;13.70;99.90;;;;;;4928506;29;20051;-62
2021/03/10 02:38:43;;;;;;;13.73;3.20;;;13.70;99.90;;;;;;4927692;29;20028;-62
2021/03/10 02:41:11;;;;;;;18.75;3.92;;;13.80;99.90;;;;;;4917223;29;20040;-62
2021/03/10 02:43:39;;;;;;;18.37;3.83;;;13.80;99.90;;;;;;4935791;29;20391;-61
2021/03/10 02:46:07;;;;;;;21.80;3.63;;;13.80;99.90;;;;;;4928711;29;20260;-62
2021/03/10 02:48:34;;;;;;;17.20;2.97;;;13.80;99.90;;;;;;4919924;29;20042;-62
2021/03/10 02:51:01;;;;;;;14.50;3.17;;;13.80;99.90;;;;;;4920073;29;20042;-62
2021/03/10 02:53:30;;;;;;;14.85;3.25;;;13.70;99.90;;;;;;4921147;29;20497;-63
2021/03/10 02:55:57;;;;;;;16.65;3.00;;;13.60;99.90;;;;;;4921617;29;20175;-62
2021/03/10 02:58:24;;;;;;;12.20;3.20;;;13.60;99.90;;;;;;4910721;29;20051;-63
2021/03/10 03:00:51;;;;;;;16.65;3.70;;;13.60;99.90;;;;;;4912764;29;20047;-63
2021/03/10 03:03:17;;;;;;;14.63;2.63;;;13.60;99.90;;;;;;4921578;29;20066;-62
2021/03/10 03:05:44;;;;;;;14.13;2.83;;;13.60;99.90;;;;;;4923759;29;20024;-62
2021/03/10 03:08:14;;;;;;;11.50;3.22;;;13.50;99.90;;;;;;4922354;29;20060;-63
2021/03/10 03:10:43;;;;;;;13.13;3.15;;;13.60;99.90;;;;;;4924207;29;20035;-63
2021/03/10 03:13:15;;;;;;;17.00;3.30;;;13.60;99.90;;;;;;4924739;29;20063;-63
2021/03/10 03:15:49;;;;;;;20.38;4.40;;;13.60;99.90;;;;;;4923305;29;20115;-62
2021/03/10 03:18:16;;;;;;;16.05;3.35;;;13.40;99.90;;;;;;4923207;29;20119;-63
2021/03/10 03:20:43;;;;;;;14.15;3.10;;;13.40;99.90;;;;;;4923578;29;21378;-63
2021/03/10 03:23:10;;;;;;;19.98;4.03;;;13.40;99.90;;;;;;4923682;29;20092;-63
2021/03/10 03:25:40;;;;;;;15.75;3.65;;;13.40;99.90;;;;;;4923855;29;20027;-63
2021/03/10 03:28:09;;;;;;;13.93;3.30;;;13.40;99.90;;;;;;4921207;29;20020;-63
2021/03/10 03:30:37;;;;;;;9.52;2.42;;;13.30;99.90;;;;;;4923367;29;20034;-63
2021/03/10 03:33:14;;;;;;;11.10;2.50;;;13.30;99.90;;;;;;4923966;29;20050;-63
2021/03/10 03:35:43;;;;;;;15.55;3.03;;;13.30;99.90;;;;;;4924527;29;20106;-63
2021/03/10 03:38:10;;;;;;;17.80;3.15;;;13.30;99.90;;;;;;4922360;29;20049;-63
2021/03/10 03:40:37;;;;;;;18.13;3.58;;;13.20;99.90;;;;;;4920814;29;20040;-63
2021/03/10 03:43:06;;;;;;;9.73;2.80;;;13.30;99.90;;;;;;4920466;29;20111;-62
2021/03/10 03:45:34;;;;;;;18.75;3.80;;;13.20;99.90;;;;;;4921396;29;20390;-62
2021/03/10 03:48:01;;;;;;;16.20;3.17;;;13.30;99.90;;;;;;4920892;29;20280;-63
2021/03/10 03:50:28;;;;;;;13.90;2.97;;;13.20;99.90;;;;;;4922427;29;20439;-62
2021/03/10 03:52:56;;;;;;;13.82;3.55;;;13.20;99.90;;;;;;4921258;29;20490;-62
2021/03/10 03:55:23;;;;;;;19.75;3.78;;;13.20;99.90;;;;;;4922086;29;20156;-63
2021/03/10 03:57:50;;;;;;;15.30;3.08;;;13.10;99.90;;;;;;4922601;29;20035;-63
2021/03/10 04:00:24;;;;;;;22.90;3.75;;;13.10;99.90;;;;;;4922175;29;20055;-62
2021/03/10 04:02:50;;;;;;;10.10;2.78;;;13.10;99.90;;;;;;4923526;29;20032;-64
2021/03/10 04:05:19;;;;;;;16.00;3.00;;;13.10;99.90;;;;;;4924317;29;20077;-63
2021/03/10 04:07:50;;;;;;;14.23;3.42;;;13.10;99.90;;;;;;4922605;29;20039;-63
2021/03/10 04:10:19;;;;;;;14.45;2.95;;;13.10;99.90;;;;;;4924470;29;20046;-62
2021/03/10 04:12:45;;;;;;;13.80;3.22;;;13.10;99.90;;;;;;4923999;29;20036;-62
2021/03/10 04:15:14;;;;;;;18.40;3.28;;;13.20;99.90;;;;;;4922811;29;20035;-62
2021/03/10 04:17:41;;;;;;;9.77;2.50;;;13.20;99.90;;;;;;4923224;29;20067;-63
2021/03/10 04:20:10;;;;;;;11.98;3.33;;;13.20;99.90;;;;;;4924329;29;20035;-63
2021/03/10 04:22:37;;;;;;;17.20;2.95;;;13.20;99.90;;;;;;4921135;29;20039;-63
2021/03/10 04:25:11;;;;;;;11.68;2.80;;;13.20;99.90;;;;;;4922652;29;20526;-62
2021/03/10 04:27:38;;;;;;;16.98;4.53;;;13.10;99.90;;;;;;4924086;29;20082;-62
2021/03/10 04:30:07;;;;;;;9.38;2.97;;;13.10;99.90;;;;;;4922662;29;20437;-63
2021/03/10 04:32:34;;;;;;;10.20;2.10;;;13.00;99.90;;;;;;4920092;29;20028;-63
2021/03/10 04:35:03;;;;;;;17.25;4.55;;;13.10;99.90;;;;;;4919812;29;20028;-63
2021/03/10 04:37:29;;;;;;;;;;;13.00;99.90;;;;;;4921973;29;20128;-63
2021/03/10 04:39:56;;;;;;;13.45;2.50;;;13.10;99.90;;;;;;4920933;29;20011;-63
2021/03/10 04:42:22;;;;;;;13.40;2.83;;;13.00;99.90;;;;;;4905540;29;20031;-64
2021/03/10 04:44:49;;;;;;;9.07;2.08;;;12.90;99.90;;;;;;4922394;29;20059;-62
2021/03/10 04:47:16;;;;;;;15.57;3.00;;;13.00;99.90;;;;;;4922244;29;20036;-63
2021/03/10 04:49:42;;;;;;;20.90;3.50;;;13.00;99.90;;;;;;4922992;29;20122;-63
2021/03/10 04:52:09;;;;;;;12.38;2.60;;;13.00;99.90;;;;;;4921270;29;20171;-63
2021/03/10 04:54:35;;;;;;;19.30;4.07;;;13.10;99.90;;;;;;4921904;29;20039;-62
2021/03/10 04:59:38;;;;;;;13.30;2.53;;;13.10;99.90;;;;;;5096039;23;20093;-63
2021/03/10 05:02:04;;;;;;;11.35;3.08;;;13.00;99.90;;;;;;4963206;28;20082;-62
2021/03/10 05:04:31;;;;;;;13.10;3.38;;;13.00;99.90;;;;;;4962955;28;20088;-63
2021/03/10 05:06:57;;;;;;;11.27;3.08;;;13.00;99.90;;;;;;4963627;28;20042;-63
2021/03/10 05:09:24;;;;;;;10.23;3.45;;;13.10;99.90;;;;;;4963036;28;20023;-63
2021/03/10 05:11:51;;;;;;;11.18;3.80;;;13.10;99.90;;;;;;4964442;28;20038;-63
2021/03/10 05:14:17;;;;;;;10.35;2.65;;;13.00;99.90;;;;;;4964164;28;20079;-63
2021/03/10 05:16:44;;;;;;;21.58;2.60;;;13.10;99.90;;;;;;4962453;28;20050;-63
2021/03/10 05:19:11;;;;;;;13.82;3.10;;;13.10;99.90;;;;;;4963177;28;20035;-62
2021/03/10 05:21:37;;;;;;;17.23;2.30;;;13.10;99.90;;;;;;4962957;28;20039;-63
2021/03/10 05:24:05;;;;;;;14.93;3.63;;;13.10;99.90;;;;;;4964263;28;20113;-63
2021/03/10 05:26:32;;;;;;;11.80;3.20;;;13.10;99.90;;;;;;4963651;28;20085;-63
2021/03/10 05:28:59;;;;;;;22.38;3.85;;;13.10;99.90;;;;;;4967798;28;20059;-63
2021/03/10 05:31:25;;;;;;;9.98;2.45;;;13.10;99.90;;;;;;4963112;28;20038;-62
2021/03/10 05:33:52;;;;;;;13.20;2.95;;;13.10;99.90;;;;;;4959085;28;20043;-63
2021/03/10 05:36:22;;;;;;;8.63;2.70;;;13.10;99.90;;;;;;4964100;28;20121;-63
2021/03/10 05:38:49;;;;;;;9.73;3.08;;;13.10;99.90;;;;;;4965891;28;20153;-63
2021/03/10 05:41:16;;;;;;;12.68;2.60;;;13.00;99.90;;;;;;4966241;28;20031;-61
2021/03/10 05:43:43;;;;;;;16.15;2.30;;;12.90;99.90;;;;;;4967158;28;20105;-62
2021/03/10 05:46:11;;;;;;;9.48;2.45;;;12.90;99.90;;;;;;4966240;28;20045;-63
2021/03/10 05:48:37;;;;;;;16.60;2.70;;;12.80;99.90;;;;;;4963964;28;20037;-63
2021/03/10 05:51:05;;;;;;;11.32;2.58;;;12.80;99.90;;;;;;4963433;28;20031;-63
2021/03/10 05:53:37;;;;;;;8.20;2.80;;;12.80;99.90;;;;;;4967376;28;20433;-63
2021/03/10 05:56:06;;;;;;;10.02;2.75;;;12.80;99.90;;;;;;4966435;28;20026;-62
2021/03/10 05:58:32;;;;;;;11.25;2.70;;;12.80;99.90;;;;;;4965975;28;20050;-63
2021/03/10 06:00:59;;;;;;;8.07;2.45;;;12.80;99.90;;;;;;4965093;28;20035;-63
2021/03/10 06:03:26;;;;;;;13.10;3.50;;;12.80;99.90;;;;;;4967198;28;20118;-64
2021/03/10 06:06:12;;;;;;;14.23;3.90;;;12.80;99.90;;;;;;4964703;28;20122;-63
2021/03/10 06:08:39;;;;;;;15.50;2.75;;;12.80;99.90;;;;;;4964625;28;20023;-62
2021/03/10 06:11:06;;;;;;;14.40;3.15;;;12.80;99.90;;;;;;4962668;28;20027;-63
2021/03/10 06:13:32;;;;;;;10.65;2.65;;;12.80;99.90;;;;;;4965990;28;20110;-63
2021/03/10 06:16:01;;;;;;;17.65;3.22;;;12.80;99.90;;;;;;4966540;28;20035;-63
2021/03/10 06:18:37;;;;;;;19.88;3.95;;;12.80;99.90;;;;;;4964925;28;20030;-63
2021/03/10 06:21:10;;;;;;;17.58;3.58;;;12.80;99.90;;;;;;4966402;28;20183;-62
2021/03/10 06:23:49;;;;;;;13.27;2.72;;;12.80;99.90;;;;;;4966710;28;20124;-62
2021/03/10 06:26:27;;;;;;;12.70;3.63;;;12.70;99.90;;;;;;4966587;28;20038;-64
2021/03/10 06:28:54;;;;;;;12.18;3.20;;;12.70;99.90;;;;;;4966607;28;20256;-63
2021/03/10 06:31:24;;;;;;;20.27;3.15;;;12.70;99.90;;;;;;4966714;28;20405;-63
2021/03/10 06:34:05;;;;;;;17.77;3.33;;;12.70;99.90;;;;;;4967531;28;20069;-63
2021/03/10 06:36:34;;;;;;;10.27;2.42;;;12.70;99.90;;;;;;4964607;28;20034;-63
2021/03/10 06:39:03;;;;;;;11.82;3.03;;;12.70;99.90;;;;;;4963721;28;20506;-63
2021/03/10 06:41:32;;;;;;;17.23;2.97;;;12.60;99.90;;;;;;4960231;28;20030;-64
2021/03/10 06:44:00;;;;;;;10.43;2.55;;;12.60;99.90;;;;;;4959789;28;20278;-63
2021/03/10 06:46:27;;;;;;;11.38;2.22;;;12.70;99.90;;;;;;4967118;28;20569;-62
2021/03/10 06:48:56;;;;;;;11.40;2.47;;;12.70;99.90;;;;;;4962588;28;20033;-63
2021/03/10 06:51:23;;;;;;;;;;;12.70;99.90;;;;;;4962438;28;20030;-63
2021/03/10 06:53:50;;;;;;;10.68;2.10;;;12.70;99.90;;;;;;4963003;28;19928;-63
2021/03/10 06:56:24;;;;;;;15.63;3.75;;;12.70;99.90;;;;;;4964328;28;20577;-63
2021/03/10 06:59:02;;;;;;;10.63;2.28;;;12.70;99.90;;;;;;4966804;28;20046;-63
2021/03/10 07:01:42;;;;;;;9.30;2.40;;;12.60;99.90;;;;;;4964981;28;20034;-63
2021/03/10 07:04:11;;;;;;;12.38;2.92;;;12.60;99.90;;;;;;4966646;28;20030;-62
2021/03/10 07:06:38;;;;;;;10.48;2.47;;;12.60;99.90;;;;;;4979650;28;20031;-63
2021/03/10 07:09:08;;;;;;;17.00;2.95;;;12.60;99.90;;;;;;4961847;28;20030;-63
2021/03/10 07:11:37;;;;;;;13.80;2.67;;;12.60;99.90;;;;;;4963664;28;20043;-63
2021/03/10 07:14:04;;;;;;;;;;;12.60;99.90;;;;;;4963737;28;20186;-63
2021/03/10 07:16:34;;;;;;;16.80;3.00;;;12.60;99.90;;;;;;4953840;28;19918;-63
2021/03/10 07:19:03;;;;;;;14.07;2.35;;;12.60;99.90;;;;;;4951569;28;20121;-63
2021/03/10 07:21:51;;;;;;;19.90;3.92;;;12.60;99.90;;;;;;4964223;28;20041;-63
2021/03/10 07:24:51;;;;;;;10.10;2.33;;;12.60;99.90;;;;;;4965094;28;20077;-63
2021/03/10 07:27:19;;;;;;;14.93;2.92;;;12.60;99.90;;;;;;4960398;28;20205;-63
2021/03/10 07:29:47;;;;;;;8.23;2.35;;;12.50;99.90;;;;;;4965316;28;20081;-63
2021/03/10 07:32:23;;;;;;;10.48;2.20;;;12.50;99.90;;;;;;4964879;28;20106;-63
2021/03/10 07:35:00;;;;;;;7.65;1.75;;;12.60;99.90;;;;;;4963148;28;20620;-62
2021/03/10 07:37:28;;;;;;;7.05;2.13;;;12.50;99.90;;;;;;4961475;28;20035;-63
2021/03/10 07:40:11;;;;;;;13.95;3.30;;;12.50;99.90;;;;;;4966176;28;20033;-62
2021/03/10 07:42:58;;;;;;;17.50;2.83;;;12.40;99.90;;;;;;4961983;28;20046;-63
2021/03/10 07:45:41;;;;;;;14.15;3.35;;;12.40;99.90;;;;;;4964109;28;20354;-63
2021/03/10 07:48:08;;;;;;;13.07;2.28;;;12.40;99.90;;;;;;4964404;28;20408;-63
2021/03/10 07:50:42;;;;;;;13.20;2.65;;;12.40;99.90;;;;;;4962107;28;20041;-63
2021/03/10 07:53:09;;;;;;;16.10;2.72;;;12.50;99.90;;;;;;4962180;28;20122;-63
2021/03/10 07:55:42;;;;;;;10.85;2.35;;;12.40;99.90;;;;;;4965169;28;20023;-63
2021/03/10 07:58:09;;;;;;;18.00;2.85;;;12.50;99.90;;;;;;4963080;28;20286;-63
2021/03/10 08:00:38;;;;;;;8.70;2.10;;;12.50;99.90;;;;;;4963799;28;20420;-63
2021/03/10 08:03:04;;;;;;;17.55;3.80;;;12.50;99.90;;;;;;4961269;28;20023;-63
2021/03/10 08:05:35;;;;;;;13.93;2.85;;;12.50;99.90;;;;;;4964668;28;20342;-64
2021/03/10 08:08:20;;;;;;;16.33;2.63;;;12.60;99.90;;;;;;4963819;28;20082;-63
2021/03/10 08:10:46;;;;;;;10.68;3.33;;;12.60;99.90;;;;;;4962078;28;20027;-63
2021/03/10 08:13:20;;;;;;;18.67;3.45;;;12.60;99.90;;;;;;4960753;28;20118;-63
2021/03/10 08:15:48;;;;;;;24.30;4.07;;;12.60;99.90;;;;;;4965253;28;20035;-67
2021/03/10 08:18:24;;;;;;;8.98;3.33;;;12.40;99.90;;;;;;4964053;28;20106;-67
2021/03/10 08:20:50;;;;;;;11.93;3.00;;;11.80;99.90;;;;;;4964522;28;20030;-65
2021/03/10 08:23:17;;;;;;;14.73;2.75;;;11.20;99.90;;;;;;4962092;28;20042;-66
2021/03/10 08:25:52;;;;;;;12.85;2.83;;;11.30;99.90;;;;;;4964717;28;20089;-66
2021/03/10 08:28:18;;;;;;;12.80;3.08;;;11.20;99.90;;;;;;4963561;28;20026;-66
2021/03/10 08:30:45;;;;;;;9.68;3.38;;;11.00;99.90;;;;;;4963854;28;20519;-66
2021/03/10 08:33:12;;;;;;;11.13;2.75;;;11.00;99.90;;;;;;4962449;28;20035;-66
2021/03/10 08:35:47;;;;;;;19.08;4.45;;;11.20;99.90;;;;;;4962300;28;20041;-66
2021/03/10 08:38:14;;;;;;;13.38;3.28;;;11.10;99.90;;;;;;4963470;28;20328;-67
2021/03/10 08:40:41;;;;;;;6.78;2.08;;;11.10;99.90;;;;;;4962804;28;20031;-67
2021/03/10 08:43:08;;;;;;;7.35;2.45;;;11.10;99.90;;;;;;4963841;28;20530;-66
2021/03/10 08:45:38;;;;;;;9.70;2.60;;;11.10;99.90;;;;;;4958593;28;20035;-66
2021/03/10 08:48:13;;;;;;;9.13;2.75;;;11.00;99.90;;;;;;4962035;28;20116;-67
2021/03/10 08:50:49;;;;;;;7.68;2.35;;;11.10;99.90;;;;;;4964814;28;20044;-67
2021/03/10 08:53:17;;;;;;;7.47;2.60;;;11.00;99.90;;;;;;4961758;28;20071;-67
2021/03/10 08:55:44;;;;;;;10.07;2.60;;;11.10;99.90;;;;;;4963285;28;20026;-67
2021/03/10 08:58:21;;;;;;;14.75;3.05;;;11.00;99.90;;;;;;4962061;28;20038;-67
2021/03/10 09:00:51;;;;;;;7.78;2.20;;;10.90;99.90;;;;;;4963320;28;20038;-67
2021/03/10 09:03:19;;;;;;;9.25;2.63;;;11.00;99.90;;;;;;4961866;28;20030;-67
2021/03/10 09:05:47;;;;;;;7.60;2.20;;;10.90;99.90;;;;;;4963730;28;20488;-67
2021/03/10 09:08:20;;;;;;;12.30;2.33;;;11.00;99.90;;;;;;4963518;28;20031;-68
2021/03/10 09:10:50;;;;;;;7.90;2.53;;;11.10;99.90;;;;;;4963779;28;20030;-66
2021/03/10 09:13:19;;;;;;;4.05;2.33;;;11.10;99.90;;;;;;4965207;28;20102;-67
2021/03/10 09:15:46;;;;;;;10.43;3.40;;;10.90;99.90;;;;;;4964519;28;20349;-66
2021/03/10 09:18:12;;;;;;;7.85;3.22;;;10.80;99.90;;;;;;4964468;28;20041;-67
2021/03/10 09:20:41;;;;;;;6.65;2.40;;;10.70;99.90;;;;;;4965419;28;20038;-67
2021/03/10 09:23:10;;;;;;;7.93;2.58;;;10.70;99.90;;;;;;4963220;28;20066;-67
2021/03/10 09:25:39;;;;;;;9.48;2.50;;;10.90;99.90;;;;;;4964196;28;20154;-67
2021/03/10 09:28:10;;;;;;;;;;;10.80;99.90;;;;;;4963760;28;20089;-67
2021/03/10 09:30:42;;;;;;;12.23;3.20;;;10.70;99.90;;;;;;4962042;28;19945;-66
2021/03/10 09:33:21;;;;;;;11.68;2.72;;;10.60;99.90;;;;;;4963338;28;20336;-66
2021/03/10 09:35:53;;;;;;;8.15;2.97;;;10.60;99.90;;;;;;4964035;28;20042;-66
2021/03/10 09:38:20;;;;;;;12.50;2.90;;;10.60;99.90;;;;;;4962478;28;20117;-67
2021/03/10 09:40:52;;;;;;;14.25;2.22;;;10.70;99.90;;;;;;4962582;28;20515;-67
2021/03/10 09:43:21;;;;;;;16.20;2.97;;;10.80;99.90;;;;;;4962621;28;20364;-67
2021/03/10 09:45:48;;;;;;;12.60;2.90;;;10.80;99.90;;;;;;4963934;28;20046;-66
2021/03/10 09:48:27;;;;;;;8.38;2.05;;;10.80;99.90;;;;;;4962467;28;20027;-67
2021/03/10 09:51:04;;;;;;;10.73;2.10;;;10.70;99.90;;;;;;4962817;28;20026;-67
2021/03/10 09:53:32;;;;;;;9.68;2.67;;;10.60;99.90;;;;;;4964027;28;20546;-67
2021/03/10 09:56:07;;;;;;;9.80;2.27;;;10.50;99.90;;;;;;4960626;28;20039;-67
2021/03/10 09:58:33;;;;;;;15.05;3.05;;;10.40;99.90;;;;;;4963377;28;20062;-67
2021/03/10 10:01:01;;;;;;;12.02;2.90;;;10.30;99.90;;;;;;4961867;28;20469;-67
2021/03/10 10:03:28;;;;;;;8.40;2.53;;;10.50;99.90;;;;;;4960968;28;20345;-67
2021/03/10 10:06:06;;;;;;;11.48;2.42;;;10.40;99.90;;;;;;4961447;28;20034;-67
2021/03/10 10:08:38;;;;;;;6.57;3.03;;;10.20;99.90;;;;;;4961453;28;21813;-66
2021/03/10 10:11:05;;;;;;;11.10;3.13;;;10.10;99.90;;;;;;4962151;28;20034;-66
2021/03/10 10:13:32;;;;;;;9.45;3.30;;;10.00;99.90;;;;;;4962878;28;20061;-66
2021/03/10 10:15:59;;;;;;;15.80;3.05;;;10.00;99.90;;;;;;4968434;28;20063;-66
2021/03/10 10:18:25;;;;;;;12.18;3.83;;;9.90;99.90;;;;;;4962477;28;20141;-67
2021/03/10 10:20:52;;;;;;;8.40;2.28;;;9.90;99.90;;;;;;4966990;28;20126;-66
2021/03/10 10:23:19;;;;;;;13.15;3.08;;;10.00;99.90;;;;;;4966566;28;20026;-66
2021/03/10 10:25:45;;;;;;;9.75;3.00;;;10.10;99.90;;;;;;4966263;28;20030;-66
2021/03/10 10:28:12;;;;;;;10.43;3.58;;;10.20;99.90;;;;;;4968232;28;20027;-68
2021/03/10 10:30:39;;;;;;;14.15;4.03;;;10.10;99.90;;;;;;4964591;28;20392;-66
2021/03/10 10:33:05;;;;;;;8.02;2.70;;;10.10;99.90;;;;;;4965571;28;20122;-67
2021/03/10 10:35:32;;;;;;;9.95;2.58;;;10.10;99.90;;;;;;4963952;28;20325;-66
2021/03/10 10:37:59;;;;;;;8.98;2.58;;;10.20;99.90;;;;;;4967120;28;20027;-66
2021/03/10 10:40:25;;;;;;;14.52;4.00;;;10.20;99.90;;;;;;4964632;28;20035;-67
2021/03/10 10:42:52;;;;;;;10.18;3.05;;;10.10;99.90;;;;;;4964166;28;20122;-66
2021/03/10 10:45:19;;;;;;;10.40;2.70;;;10.10;99.90;;;;;;4963183;28;20401;-66
2021/03/10 10:47:47;;;;;;;7.95;3.17;;;10.10;99.90;;;;;;4965534;28;20033;-67
2021/03/10 10:50:14;;;;;;;15.82;3.85;;;10.00;99.90;;;;;;4966028;28;20035;-67
2021/03/10 10:52:41;;;;;;;10.10;3.00;;;10.10;99.90;;;;;;4965257;28;20026;-67
2021/03/10 10:55:13;;;;;;;12.05;3.38;;;10.10;99.90;;;;;;4964168;28;20034;-67
2021/03/10 10:57:40;;;;;;;9.80;3.50;;;10.20;99.90;;;;;;4965872;28;20031;-67
2021/03/10 11:00:09;;;;;;;10.40;3.20;;;10.20;99.90;;;;;;4965982;28;20070;-67
2021/03/10 11:02:37;;;;;;;13.50;2.92;;;10.20;99.90;;;;;;4965945;28;20121;-67
2021/03/10 11:05:05;;;;;;;12.15;3.28;;;10.30;99.90;;;;;;4963079;28;20031;-68
2021/03/10 11:07:32;;;;;;;13.40;3.20;;;10.40;99.90;;;;;;4963290;28;20443;-67
2021/03/10 11:09:58;;;;;;;18.52;4.40;;;10.40;99.90;;;;;;4965179;28;20039;-67
2021/03/10 11:12:25;;;;;;;11.07;3.20;;;10.40;99.90;;;;;;4964002;28;20033;-68
2021/03/10 11:14:52;;;;;;;14.55;3.08;;;10.40;99.90;;;;;;4969863;28;20034;-68
2021/03/10 11:17:19;;;;;;;9.55;3.05;;;10.50;99.90;;;;;;4974202;28;20066;-67
2021/03/10 11:19:45;;;;;;;13.55;3.10;;;10.50;99.90;;;;;;4967826;28;20157;-68
2021/03/10 11:22:12;;;;;;;15.13;4.72;;;10.60;99.90;;;;;;4966127;28;20058;-68
2021/03/10 11:24:38;;;;;;;15.00;3.38;;;10.60;99.90;;;;;;4964480;28;20394;-67
2021/03/10 11:27:06;;;;;;;12.43;3.72;;;10.60;99.90;;;;;;4965131;28;20139;-67
2021/03/10 11:29:32;;;;;;;8.35;3.20;;;10.70;99.90;;;;;;4966973;28;20031;-67
2021/03/10 11:32:01;;;;;;;11.30;3.30;;;10.70;99.90;;;;;;4965082;28;20434;-67
2021/03/10 11:34:29;;;;;;;19.33;4.13;;;10.70;99.90;;;;;;4965448;28;20085;-68
2021/03/10 11:36:56;;;;;;;13.48;3.70;;;10.80;99.90;;;;;;4965381;28;20639;-68
2021/03/10 11:39:23;;;;;;;15.20;4.53;;;10.90;99.90;;;;;;4966841;28;20047;-67
2021/03/10 11:41:49;;;;;;;13.15;3.45;;;10.90;99.90;;;;;;4965239;28;20073;-67
2021/03/10 11:44:16;;;;;;;10.10;2.60;;;10.80;99.90;;;;;;4964065;28;20031;-67
2021/03/10 11:46:43;;;;;;;15.70;3.35;;;10.80;99.90;;;;;;4967140;28;20026;-67
2021/03/10 11:49:10;;;;;;;17.15;3.05;;;10.90;99.90;;;;;;4963343;28;20031;-67
2021/03/10 11:51:36;;;;;;;14.18;4.25;;;11.10;99.90;;;;;;4964351;28;20027;-67
2021/03/10 11:54:03;;;;;;;17.70;3.78;;;11.30;99.90;;;;;;4966729;28;20062;-68
2021/03/10 11:56:30;;;;;;;11.93;3.53;;;11.40;99.90;;;;;;4964801;28;20065;-64
2021/03/10 11:58:56;;;;;;;24.70;4.05;;;11.30;99.90;;;;;;4965166;28;20138;-65
2021/03/10 12:01:26;;;;;;;22.48;4.60;;;10.40;99.90;;;;;;4965837;28;20164;-63
2021/03/10 12:03:53;;;;;;;21.90;5.55;;;10.20;99.90;;;;;;4965405;28;20501;-63
2021/03/10 12:06:20;;;;;;;33.83;5.53;;;10.20;99.90;;;;;;4962076;28;20134;-62
2021/03/10 12:08:46;;;;;;;34.15;6.05;;;10.20;99.90;;;;;;4963850;28;20023;-62
2021/03/10 12:11:13;;;;;;;28.08;6.18;;;10.10;99.90;;;;;;4962977;28;20039;-62
2021/03/10 12:13:39;;;;;;;36.03;6.82;;;10.10;99.90;;;;;;4965188;28;20165;-63
2021/03/10 12:16:06;;;;;;;26.27;4.40;;;10.10;99.90;;;;;;4964820;28;20039;-63
2021/03/10 12:18:33;;;;;;;40.03;6.63;;;10.10;99.90;;;;;;4961845;28;20038;-62
2021/03/10 12:20:59;;;;;;;22.33;4.47;;;10.10;99.90;;;;;;4963205;28;20067;-63
2021/03/10 12:23:26;;;;;;;39.30;5.43;;;10.10;99.90;;;;;;4963471;28;20026;-63
2021/03/10 12:25:53;;;;;;;27.27;4.65;;;10.20;99.90;;;;;;4966112;28;20038;-62
2021/03/10 12:28:19;;;;;;;29.85;5.45;;;10.20;99.90;;;;;;4964636;28;20577;-62
2021/03/10 12:30:46;;;;;;;23.80;4.20;;;10.30;99.90;;;;;;4963088;28;20039;-62
2021/03/10 12:33:13;;;;;;;29.17;4.43;;;10.30;99.90;;;;;;4965197;28;20034;-62
2021/03/10 12:35:39;;;;;;;16.75;3.20;;;10.40;99.90;;;;;;4964357;28;20077;-62
2021/03/10 12:38:06;;;;;;;24.20;3.65;;;10.40;99.90;;;;;;4963703;28;20090;-63
2021/03/10 12:40:33;;;;;;;27.05;3.78;;;10.40;99.90;;;;;;4964588;28;20062;-62
2021/03/10 12:42:59;;;;;;;16.38;2.88;;;10.50;99.90;;;;;;4963245;28;20030;-63
2021/03/10 12:45:26;;;;;;;15.45;3.83;;;10.60;99.90;;;;;;4964220;28;20102;-62
2021/03/10 12:47:53;;;;;;;21.40;4.78;;;10.50;99.90;;;;;;4963953;28;20408;-62
2021/03/10 12:50:19;;;;;;;22.70;3.55;;;10.50;99.90;;;;;;4964405;28;20088;-62
2021/03/10 12:52:46;;;;;;;23.60;4.10;;;10.50;99.90;;;;;;4962009;28;20609;-62